Terminal Aerodrome Forecast
Issued by NWS Jackson, MS

Home | Current Version | Previous Version | Text Only | Print | Product List | Glossary On
Versions: 1 2 3 4 5 6 7 8 9 10 11 12 13 14 15 16 17
000
FTUS44 KJAN 021803 AAA
TAFMEI
TAF AMD
KMEI 021803Z 0218/0318 25014G20KT P6SM FEW040 BKN200
     FM030100 20010KT P6SM BKN250
     FM031500 26011KT P6SM BKN100=

USA.gov is the U.S. government's official web portal to all federal, state and local government web resources and services.